sensor_id;sensor_type;location;lat;lon;timestamp;P1;durP1;ratioP1;P2;durP2;ratioP2
17937;SDS011;16051;53.024;8.630;2023-02-13T00:00:13;14.87;;;10.10;;
17937;SDS011;16051;53.024;8.630;2023-02-13T00:04:20;14.60;;;10.33;;
17937;SDS011;16051;53.024;8.630;2023-02-13T00:08:22;14.53;;;10.53;;
17937;SDS011;16051;53.024;8.630;2023-02-13T00:12:29;15.43;;;10.57;;
17937;SDS011;16051;53.024;8.630;2023-02-13T00:16:31;13.97;;;9.50;;
17937;SDS011;16051;53.024;8.630;2023-02-13T00:20:35;14.07;;;10.20;;
17937;SDS011;16051;53.024;8.630;2023-02-13T00:24:37;15.40;;;9.93;;
17937;SDS011;16051;53.024;8.630;2023-02-13T00:28:41;13.80;;;9.63;;
17937;SDS011;16051;53.024;8.630;2023-02-13T00:32:43;16.00;;;10.43;;
17937;SDS011;16051;53.024;8.630;2023-02-13T00:36:47;14.33;;;9.50;;
17937;SDS011;16051;53.024;8.630;2023-02-13T00:40:49;19.23;;;10.13;;
17937;SDS011;16051;53.024;8.630;2023-02-13T00:44:51;15.57;;;10.43;;
17937;SDS011;16051;53.024;8.630;2023-02-13T00:48:54;14.57;;;10.27;;
17937;SDS011;16051;53.024;8.630;2023-02-13T00:52:57;17.80;;;10.20;;
17937;SDS011;16051;53.024;8.630;2023-02-13T00:56:59;15.30;;;10.40;;
17937;SDS011;16051;53.024;8.630;2023-02-13T01:01:01;16.63;;;10.13;;
17937;SDS011;16051;53.024;8.630;2023-02-13T01:05:04;13.90;;;10.13;;
17937;SDS011;16051;53.024;8.630;2023-02-13T01:09:09;14.27;;;10.13;;
17937;SDS011;16051;53.024;8.630;2023-02-13T01:13:11;15.87;;;9.70;;
17937;SDS011;16051;53.024;8.630;2023-02-13T01:17:15;15.17;;;10.53;;
17937;SDS011;16051;53.024;8.630;2023-02-13T01:21:18;13.80;;;9.67;;
17937;SDS011;16051;53.024;8.630;2023-02-13T01:25:24;16.97;;;10.50;;
17937;SDS011;16051;53.024;8.630;2023-02-13T01:33:33;15.40;;;9.80;;
17937;SDS011;16051;53.024;8.630;2023-02-13T01:37:36;14.53;;;9.90;;
17937;SDS011;16051;53.024;8.630;2023-02-13T01:41:40;15.13;;;9.90;;
17937;SDS011;16051;53.024;8.630;2023-02-13T01:45:43;17.10;;;10.57;;
17937;SDS011;16051;53.024;8.630;2023-02-13T01:49:49;17.57;;;11.10;;
17937;SDS011;16051;53.024;8.630;2023-02-13T01:54:04;16.70;;;10.70;;
17937;SDS011;16051;53.024;8.630;2023-02-13T01:58:14;17.17;;;11.20;;
17937;SDS011;16051;53.024;8.630;2023-02-13T02:02:20;15.73;;;10.30;;
17937;SDS011;16051;53.024;8.630;2023-02-13T02:06:24;16.47;;;10.60;;
17937;SDS011;16051;53.024;8.630;2023-02-13T02:10:35;16.90;;;10.97;;
17937;SDS011;16051;53.024;8.630;2023-02-13T02:14:39;17.40;;;10.60;;
17937;SDS011;16051;53.024;8.630;2023-02-13T02:18:43;17.80;;;11.60;;
17937;SDS011;16051;53.024;8.630;2023-02-13T02:22:51;18.03;;;11.73;;
17937;SDS011;16051;53.024;8.630;2023-02-13T02:32:31;18.13;;;10.63;;
17937;SDS011;16051;53.024;8.630;2023-02-13T02:37:01;17.53;;;11.23;;
17937;SDS011;16051;53.024;8.630;2023-02-13T02:41:22;16.63;;;11.23;;
17937;SDS011;16051;53.024;8.630;2023-02-13T02:45:45;17.07;;;11.07;;
17937;SDS011;16051;53.024;8.630;2023-02-13T02:49:59;17.90;;;12.43;;
17937;SDS011;16051;53.024;8.630;2023-02-13T02:54:21;19.30;;;11.40;;
17937;SDS011;16051;53.024;8.630;2023-02-13T02:58:46;19.77;;;12.10;;
17937;SDS011;16051;53.024;8.630;2023-02-13T03:03:15;19.07;;;12.20;;
17937;SDS011;16051;53.024;8.630;2023-02-13T03:07:40;16.87;;;11.33;;
17937;SDS011;16051;53.024;8.630;2023-02-13T03:11:44;18.53;;;11.80;;
17937;SDS011;16051;53.024;8.630;2023-02-13T03:16:11;19.77;;;12.40;;
17937;SDS011;16051;53.024;8.630;2023-02-13T03:20:41;18.67;;;11.93;;
17937;SDS011;16051;53.024;8.630;2023-02-13T03:25:10;17.23;;;11.70;;
17937;SDS011;16051;53.024;8.630;2023-02-13T03:29:33;19.23;;;12.10;;
17937;SDS011;16051;53.024;8.630;2023-02-13T03:34:04;18.60;;;11.90;;
17937;SDS011;16051;53.024;8.630;2023-02-13T03:38:13;18.00;;;12.20;;
17937;SDS011;16051;53.024;8.630;2023-02-13T03:42:22;20.53;;;12.13;;
17937;SDS011;16051;53.024;8.630;2023-02-13T03:46:35;20.63;;;11.67;;
17937;SDS011;16051;53.024;8.630;2023-02-13T03:50:47;19.03;;;11.87;;
17937;SDS011;16051;53.024;8.630;2023-02-13T03:54:50;20.30;;;12.30;;
17937;SDS011;16051;53.024;8.630;2023-02-13T03:59:19;20.77;;;11.40;;
17937;SDS011;16051;53.024;8.630;2023-02-13T04:03:29;19.70;;;12.27;;
17937;SDS011;16051;53.024;8.630;2023-02-13T04:07:38;19.27;;;11.87;;
17937;SDS011;16051;53.024;8.630;2023-02-13T04:11:41;18.20;;;12.03;;
17937;SDS011;16051;53.024;8.630;2023-02-13T04:15:55;18.13;;;11.63;;
17937;SDS011;16051;53.024;8.630;2023-02-13T04:20:03;18.10;;;11.37;;
17937;SDS011;16051;53.024;8.630;2023-02-13T04:24:08;16.33;;;10.77;;
17937;SDS011;16051;53.024;8.630;2023-02-13T04:28:11;17.30;;;11.17;;
17937;SDS011;16051;53.024;8.630;2023-02-13T04:32:14;18.07;;;11.90;;
17937;SDS011;16051;53.024;8.630;2023-02-13T04:36:16;19.37;;;11.57;;
17937;SDS011;16051;53.024;8.630;2023-02-13T04:40:19;18.47;;;12.30;;
17937;SDS011;16051;53.024;8.630;2023-02-13T04:44:21;21.07;;;11.60;;
17937;SDS011;16051;53.024;8.630;2023-02-13T04:48:24;20.03;;;11.70;;
17937;SDS011;16051;53.024;8.630;2023-02-13T04:52:26;20.40;;;11.60;;
17937;SDS011;16051;53.024;8.630;2023-02-13T04:56:29;16.53;;;11.73;;
17937;SDS011;16051;53.024;8.630;2023-02-13T05:00:31;17.10;;;11.80;;
17937;SDS011;16051;53.024;8.630;2023-02-13T05:04:34;18.73;;;11.93;;
17937;SDS011;16051;53.024;8.630;2023-02-13T05:08:36;18.73;;;11.87;;
17937;SDS011;16051;53.024;8.630;2023-02-13T05:12:38;21.10;;;12.90;;
17937;SDS011;16051;53.024;8.630;2023-02-13T05:16:41;18.37;;;12.67;;
17937;SDS011;16051;53.024;8.630;2023-02-13T05:20:44;21.33;;;12.50;;
17937;SDS011;16051;53.024;8.630;2023-02-13T05:25:07;19.13;;;11.30;;
17937;SDS011;16051;53.024;8.630;2023-02-13T05:29:10;22.37;;;13.43;;
17937;SDS011;16051;53.024;8.630;2023-02-13T05:33:21;17.13;;;11.00;;
17937;SDS011;16051;53.024;8.630;2023-02-13T05:37:25;17.37;;;12.53;;
17937;SDS011;16051;53.024;8.630;2023-02-13T05:41:27;18.97;;;12.70;;
17937;SDS011;16051;53.024;8.630;2023-02-13T05:45:30;18.13;;;12.10;;
17937;SDS011;16051;53.024;8.630;2023-02-13T05:49:32;22.77;;;12.93;;
17937;SDS011;16051;53.024;8.630;2023-02-13T05:53:35;17.63;;;11.87;;
17937;SDS011;16051;53.024;8.630;2023-02-13T05:57:38;19.93;;;12.07;;
17937;SDS011;16051;53.024;8.630;2023-02-13T06:01:40;20.73;;;13.03;;
17937;SDS011;16051;53.024;8.630;2023-02-13T06:05:42;17.80;;;11.97;;
17937;SDS011;16051;53.024;8.630;2023-02-13T06:09:46;20.13;;;12.27;;
17937;SDS011;16051;53.024;8.630;2023-02-13T06:13:48;21.33;;;13.00;;
17937;SDS011;16051;53.024;8.630;2023-02-13T06:17:50;20.17;;;12.73;;
17937;SDS011;16051;53.024;8.630;2023-02-13T06:21:53;21.37;;;13.77;;
17937;SDS011;16051;53.024;8.630;2023-02-13T06:26:00;21.10;;;12.10;;
17937;SDS011;16051;53.024;8.630;2023-02-13T06:30:03;20.57;;;13.73;;
17937;SDS011;16051;53.024;8.630;2023-02-13T06:34:06;17.40;;;12.07;;
17937;SDS011;16051;53.024;8.630;2023-02-13T06:38:09;19.20;;;12.17;;
17937;SDS011;16051;53.024;8.630;2023-02-13T06:42:12;19.73;;;11.97;;
17937;SDS011;16051;53.024;8.630;2023-02-13T06:46:14;19.87;;;11.93;;
17937;SDS011;16051;53.024;8.630;2023-02-13T06:50:17;19.63;;;11.73;;
17937;SDS011;16051;53.024;8.630;2023-02-13T06:54:19;19.10;;;11.73;;
17937;SDS011;16051;53.024;8.630;2023-02-13T06:58:23;18.47;;;11.77;;
17937;SDS011;16051;53.024;8.630;2023-02-13T07:02:44;19.77;;;11.77;;
17937;SDS011;16051;53.024;8.630;2023-02-13T07:06:47;21.73;;;12.00;;
17937;SDS011;16051;53.024;8.630;2023-02-13T07:10:49;22.87;;;13.40;;
17937;SDS011;16051;53.024;8.630;2023-02-13T07:14:53;21.93;;;13.27;;
17937;SDS011;16051;53.024;8.630;2023-02-13T07:18:55;23.80;;;13.23;;
17937;SDS011;16051;53.024;8.630;2023-02-13T07:22:57;22.20;;;13.27;;
17937;SDS011;16051;53.024;8.630;2023-02-13T07:27:00;23.03;;;13.87;;
17937;SDS011;16051;53.024;8.630;2023-02-13T07:31:04;22.93;;;14.03;;
17937;SDS011;16051;53.024;8.630;2023-02-13T07:35:06;21.83;;;13.10;;
17937;SDS011;16051;53.024;8.630;2023-02-13T07:39:09;18.97;;;12.37;;
17937;SDS011;16051;53.024;8.630;2023-02-13T07:43:11;24.53;;;14.83;;
17937;SDS011;16051;53.024;8.630;2023-02-13T07:47:15;23.13;;;14.17;;
17937;SDS011;16051;53.024;8.630;2023-02-13T07:51:17;23.53;;;14.37;;
17937;SDS011;16051;53.024;8.630;2023-02-13T07:55:24;20.47;;;13.10;;
17937;SDS011;16051;53.024;8.630;2023-02-13T07:59:27;22.60;;;14.93;;
17937;SDS011;16051;53.024;8.630;2023-02-13T08:03:31;28.67;;;15.50;;
17937;SDS011;16051;53.024;8.630;2023-02-13T08:07:33;23.17;;;14.73;;
17937;SDS011;16051;53.024;8.630;2023-02-13T08:11:36;23.00;;;14.37;;
17937;SDS011;16051;53.024;8.630;2023-02-13T08:15:53;24.63;;;15.47;;
17937;SDS011;16051;53.024;8.630;2023-02-13T08:19:57;28.50;;;17.50;;
17937;SDS011;16051;53.024;8.630;2023-02-13T08:23:59;26.93;;;15.77;;
17937;SDS011;16051;53.024;8.630;2023-02-13T08:28:02;27.23;;;16.07;;
17937;SDS011;16051;53.024;8.630;2023-02-13T08:32:05;22.03;;;15.07;;
17937;SDS011;16051;53.024;8.630;2023-02-13T08:36:09;24.63;;;15.23;;
17937;SDS011;16051;53.024;8.630;2023-02-13T08:40:12;22.17;;;14.17;;
17937;SDS011;16051;53.024;8.630;2023-02-13T08:44:14;24.00;;;15.27;;
17937;SDS011;16051;53.024;8.630;2023-02-13T08:48:17;23.67;;;15.67;;
17937;SDS011;16051;53.024;8.630;2023-02-13T08:52:20;22.50;;;14.90;;
17937;SDS011;16051;53.024;8.630;2023-02-13T08:56:22;24.20;;;14.93;;
17937;SDS011;16051;53.024;8.630;2023-02-13T09:00:27;21.40;;;14.13;;
17937;SDS011;16051;53.024;8.630;2023-02-13T09:04:30;23.83;;;14.57;;
17937;SDS011;16051;53.024;8.630;2023-02-13T09:08:34;28.33;;;15.73;;
17937;SDS011;16051;53.024;8.630;2023-02-13T09:12:36;22.83;;;14.17;;
17937;SDS011;16051;53.024;8.630;2023-02-13T09:16:40;24.87;;;15.50;;
17937;SDS011;16051;53.024;8.630;2023-02-13T09:20:42;28.87;;;18.00;;
17937;SDS011;16051;53.024;8.630;2023-02-13T09:24:45;27.57;;;16.57;;
17937;SDS011;16051;53.024;8.630;2023-02-13T09:28:48;29.10;;;16.47;;
17937;SDS011;16051;53.024;8.630;2023-02-13T09:32:50;27.43;;;16.70;;
17937;SDS011;16051;53.024;8.630;2023-02-13T09:36:54;29.33;;;17.50;;
17937;SDS011;16051;53.024;8.630;2023-02-13T09:40:58;28.63;;;17.60;;
17937;SDS011;16051;53.024;8.630;2023-02-13T09:45:06;32.80;;;18.70;;
17937;SDS011;16051;53.024;8.630;2023-02-13T09:49:14;38.03;;;21.03;;
17937;SDS011;16051;53.024;8.630;2023-02-13T09:53:24;33.67;;;18.70;;
17937;SDS011;16051;53.024;8.630;2023-02-13T09:57:34;29.83;;;19.10;;
17937;SDS011;16051;53.024;8.630;2023-02-13T10:01:44;29.10;;;16.93;;
17937;SDS011;16051;53.024;8.630;2023-02-13T10:05:52;30.13;;;17.80;;
17937;SDS011;16051;53.024;8.630;2023-02-13T10:10:06;27.73;;;17.23;;
17937;SDS011;16051;53.024;8.630;2023-02-13T10:14:27;30.07;;;17.37;;
17937;SDS011;16051;53.024;8.630;2023-02-13T10:18:40;29.73;;;17.07;;
17937;SDS011;16051;53.024;8.630;2023-02-13T10:22:50;30.43;;;17.93;;
17937;SDS011;16051;53.024;8.630;2023-02-13T10:26:59;31.33;;;17.63;;
17937;SDS011;16051;53.024;8.630;2023-02-13T10:31:14;29.47;;;18.63;;
17937;SDS011;16051;53.024;8.630;2023-02-13T10:35:23;33.53;;;18.43;;
17937;SDS011;16051;53.024;8.630;2023-02-13T10:39:31;31.37;;;19.50;;
17937;SDS011;16051;53.024;8.630;2023-02-13T10:43:37;32.40;;;19.37;;
17937;SDS011;16051;53.024;8.630;2023-02-13T10:48:08;34.47;;;19.67;;
17937;SDS011;16051;53.024;8.630;2023-02-13T10:52:32;32.50;;;19.60;;
17937;SDS011;16051;53.024;8.630;2023-02-13T10:56:49;32.60;;;20.57;;
17937;SDS011;16051;53.024;8.630;2023-02-13T11:01:06;34.30;;;20.23;;
17937;SDS011;16051;53.024;8.630;2023-02-13T11:05:19;37.10;;;20.73;;
17937;SDS011;16051;53.024;8.630;2023-02-13T11:09:25;38.37;;;20.87;;
17937;SDS011;16051;53.024;8.630;2023-02-13T11:13:28;32.03;;;18.87;;
17937;SDS011;16051;53.024;8.630;2023-02-13T11:17:31;34.13;;;21.03;;
17937;SDS011;16051;53.024;8.630;2023-02-13T11:21:41;32.93;;;19.27;;
17937;SDS011;16051;53.024;8.630;2023-02-13T11:25:52;33.37;;;18.87;;
17937;SDS011;16051;53.024;8.630;2023-02-13T11:30:01;37.27;;;21.70;;
17937;SDS011;16051;53.024;8.630;2023-02-13T11:42:45;32.73;;;19.53;;
17937;SDS011;16051;53.024;8.630;2023-02-13T11:46:52;33.90;;;19.20;;
17937;SDS011;16051;53.024;8.630;2023-02-13T11:50:56;29.90;;;18.57;;
17937;SDS011;16051;53.024;8.630;2023-02-13T11:55:01;35.23;;;20.17;;
17937;SDS011;16051;53.024;8.630;2023-02-13T11:59:10;33.83;;;19.67;;
17937;SDS011;16051;53.024;8.630;2023-02-13T12:03:24;34.00;;;18.63;;
17937;SDS011;16051;53.024;8.630;2023-02-13T12:07:30;32.83;;;18.50;;
17937;SDS011;16051;53.024;8.630;2023-02-13T12:11:35;29.53;;;16.57;;
17937;SDS011;16051;53.024;8.630;2023-02-13T12:15:45;28.90;;;17.30;;
17937;SDS011;16051;53.024;8.630;2023-02-13T12:19:56;28.90;;;17.43;;
17937;SDS011;16051;53.024;8.630;2023-02-13T12:24:00;28.33;;;17.50;;
17937;SDS011;16051;53.024;8.630;2023-02-13T12:28:14;30.60;;;18.13;;
17937;SDS011;16051;53.024;8.630;2023-02-13T12:32:25;31.53;;;18.97;;
17937;SDS011;16051;53.024;8.630;2023-02-13T12:36:43;35.20;;;21.23;;
17937;SDS011;16051;53.024;8.630;2023-02-13T12:41:03;37.37;;;20.13;;
17937;SDS011;16051;53.024;8.630;2023-02-13T12:45:25;35.50;;;20.47;;
17937;SDS011;16051;53.024;8.630;2023-02-13T12:49:53;33.40;;;20.23;;
17937;SDS011;16051;53.024;8.630;2023-02-13T12:54:35;37.87;;;21.07;;
17937;SDS011;16051;53.024;8.630;2023-02-13T12:58:55;36.57;;;21.97;;
17937;SDS011;16051;53.024;8.630;2023-02-13T13:03:18;33.77;;;20.37;;
17937;SDS011;16051;53.024;8.630;2023-02-13T13:07:40;32.90;;;19.97;;
17937;SDS011;16051;53.024;8.630;2023-02-13T13:12:11;38.07;;;20.70;;
17937;SDS011;16051;53.024;8.630;2023-02-13T13:16:42;35.67;;;21.03;;
17937;SDS011;16051;53.024;8.630;2023-02-13T13:20:58;35.83;;;20.80;;
17937;SDS011;16051;53.024;8.630;2023-02-13T13:25:23;38.70;;;21.87;;
17937;SDS011;16051;53.024;8.630;2023-02-13T13:29:41;31.10;;;18.90;;
17937;SDS011;16051;53.024;8.630;2023-02-13T13:33:50;34.70;;;20.67;;
17937;SDS011;16051;53.024;8.630;2023-02-13T13:37:57;41.13;;;21.67;;
17937;SDS011;16051;53.024;8.630;2023-02-13T13:42:13;39.13;;;21.33;;
17937;SDS011;16051;53.024;8.630;2023-02-13T13:46:29;33.00;;;20.13;;
17937;SDS011;16051;53.024;8.630;2023-02-13T13:50:48;34.80;;;19.93;;
17937;SDS011;16051;53.024;8.630;2023-02-13T13:54:53;37.77;;;20.33;;
17937;SDS011;16051;53.024;8.630;2023-02-13T13:58:59;32.90;;;19.83;;
17937;SDS011;16051;53.024;8.630;2023-02-13T14:03:20;36.53;;;19.50;;
17937;SDS011;16051;53.024;8.630;2023-02-13T14:07:36;32.63;;;20.37;;
17937;SDS011;16051;53.024;8.630;2023-02-13T14:11:43;35.70;;;20.90;;
17937;SDS011;16051;53.024;8.630;2023-02-13T14:15:50;33.23;;;21.13;;
17937;SDS011;16051;53.024;8.630;2023-02-13T14:19:54;34.27;;;19.10;;
17937;SDS011;16051;53.024;8.630;2023-02-13T14:23:57;31.50;;;18.70;;
17937;SDS011;16051;53.024;8.630;2023-02-13T14:28:04;31.90;;;19.90;;
17937;SDS011;16051;53.024;8.630;2023-02-13T14:32:17;31.93;;;18.57;;
17937;SDS011;16051;53.024;8.630;2023-02-13T14:36:26;34.77;;;19.73;;
17937;SDS011;16051;53.024;8.630;2023-02-13T14:40:43;33.20;;;20.13;;
17937;SDS011;16051;53.024;8.630;2023-02-13T14:44:50;37.43;;;20.73;;
17937;SDS011;16051;53.024;8.630;2023-02-13T14:48:57;30.53;;;18.43;;
17937;SDS011;16051;53.024;8.630;2023-02-13T14:53:05;33.30;;;19.17;;
17937;SDS011;16051;53.024;8.630;2023-02-13T14:57:20;34.63;;;20.37;;
17937;SDS011;16051;53.024;8.630;2023-02-13T15:01:31;33.87;;;19.73;;
17937;SDS011;16051;53.024;8.630;2023-02-13T15:05:37;31.67;;;19.70;;
17937;SDS011;16051;53.024;8.630;2023-02-13T15:09:40;34.30;;;19.80;;
17937;SDS011;16051;53.024;8.630;2023-02-13T15:13:52;30.77;;;18.47;;
17937;SDS011;16051;53.024;8.630;2023-02-13T15:17:56;30.27;;;19.03;;
17937;SDS011;16051;53.024;8.630;2023-02-13T15:22:03;29.27;;;19.37;;
17937;SDS011;16051;53.024;8.630;2023-02-13T15:26:07;30.00;;;18.47;;
17937;SDS011;16051;53.024;8.630;2023-02-13T15:30:18;31.60;;;19.53;;
17937;SDS011;16051;53.024;8.630;2023-02-13T15:34:26;28.57;;;18.20;;
17937;SDS011;16051;53.024;8.630;2023-02-13T15:38:32;34.07;;;19.93;;
17937;SDS011;16051;53.024;8.630;2023-02-13T15:42:37;31.90;;;20.07;;
17937;SDS011;16051;53.024;8.630;2023-02-13T15:46:40;30.67;;;18.97;;
17937;SDS011;16051;53.024;8.630;2023-02-13T15:50:45;30.63;;;19.53;;
17937;SDS011;16051;53.024;8.630;2023-02-13T15:54:48;37.40;;;22.40;;
17937;SDS011;16051;53.024;8.630;2023-02-13T15:58:52;34.60;;;22.30;;
17937;SDS011;16051;53.024;8.630;2023-02-13T16:02:56;32.27;;;20.93;;
17937;SDS011;16051;53.024;8.630;2023-02-13T16:07:03;37.93;;;22.47;;
17937;SDS011;16051;53.024;8.630;2023-02-13T16:11:18;38.07;;;21.20;;
17937;SDS011;16051;53.024;8.630;2023-02-13T16:19:51;35.70;;;22.20;;
17937;SDS011;16051;53.024;8.630;2023-02-13T16:24:01;36.37;;;21.73;;
17937;SDS011;16051;53.024;8.630;2023-02-13T16:28:13;39.87;;;22.40;;
17937;SDS011;16051;53.024;8.630;2023-02-13T16:32:22;31.57;;;20.57;;
17937;SDS011;16051;53.024;8.630;2023-02-13T16:36:30;31.63;;;19.87;;
17937;SDS011;16051;53.024;8.630;2023-02-13T16:40:40;32.97;;;20.13;;
17937;SDS011;16051;53.024;8.630;2023-02-13T16:44:46;32.40;;;20.03;;
17937;SDS011;16051;53.024;8.630;2023-02-13T16:49:23;32.80;;;19.97;;
17937;SDS011;16051;53.024;8.630;2023-02-13T16:53:28;31.53;;;20.23;;
17937;SDS011;16051;53.024;8.630;2023-02-13T16:57:32;29.77;;;18.53;;
17937;SDS011;16051;53.024;8.630;2023-02-13T17:01:35;30.80;;;17.27;;
17937;SDS011;16051;53.024;8.630;2023-02-13T17:05:37;30.27;;;18.27;;
17937;SDS011;16051;53.024;8.630;2023-02-13T17:14:08;30.57;;;19.33;;
17937;SDS011;16051;53.024;8.630;2023-02-13T17:18:11;33.53;;;21.07;;
17937;SDS011;16051;53.024;8.630;2023-02-13T17:22:21;39.90;;;23.33;;
17937;SDS011;16051;53.024;8.630;2023-02-13T17:26:41;39.47;;;27.10;;
17937;SDS011;16051;53.024;8.630;2023-02-13T17:30:45;34.10;;;21.50;;
17937;SDS011;16051;53.024;8.630;2023-02-13T17:34:50;34.73;;;19.77;;
17937;SDS011;16051;53.024;8.630;2023-02-13T17:38:52;32.23;;;19.40;;
17937;SDS011;16051;53.024;8.630;2023-02-13T17:42:55;31.87;;;19.57;;
17937;SDS011;16051;53.024;8.630;2023-02-13T17:47:00;32.53;;;21.17;;
17937;SDS011;16051;53.024;8.630;2023-02-13T17:51:02;33.53;;;19.97;;
17937;SDS011;16051;53.024;8.630;2023-02-13T17:55:05;35.97;;;22.70;;
17937;SDS011;16051;53.024;8.630;2023-02-13T18:03:45;30.80;;;18.83;;
17937;SDS011;16051;53.024;8.630;2023-02-13T18:08:02;32.40;;;19.43;;
17937;SDS011;16051;53.024;8.630;2023-02-13T18:12:05;35.03;;;21.87;;
17937;SDS011;16051;53.024;8.630;2023-02-13T18:16:08;34.60;;;21.57;;
17937;SDS011;16051;53.024;8.630;2023-02-13T18:20:25;35.47;;;21.90;;
17937;SDS011;16051;53.024;8.630;2023-02-13T18:24:28;32.93;;;20.63;;
17937;SDS011;16051;53.024;8.630;2023-02-13T18:28:31;34.47;;;19.43;;
17937;SDS011;16051;53.024;8.630;2023-02-13T18:32:33;38.27;;;21.03;;
17937;SDS011;16051;53.024;8.630;2023-02-13T18:36:37;34.47;;;20.83;;
17937;SDS011;16051;53.024;8.630;2023-02-13T18:40:39;33.37;;;20.33;;
17937;SDS011;16051;53.024;8.630;2023-02-13T18:44:41;32.93;;;20.03;;
17937;SDS011;16051;53.024;8.630;2023-02-13T18:48:43;32.20;;;19.27;;
17937;SDS011;16051;53.024;8.630;2023-02-13T18:57:24;30.87;;;18.93;;
17937;SDS011;16051;53.024;8.630;2023-02-13T19:01:32;32.73;;;19.60;;
17937;SDS011;16051;53.024;8.630;2023-02-13T19:05:38;31.37;;;19.83;;
17937;SDS011;16051;53.024;8.630;2023-02-13T19:09:42;27.57;;;17.80;;
17937;SDS011;16051;53.024;8.630;2023-02-13T19:13:45;28.80;;;17.47;;
17937;SDS011;16051;53.024;8.630;2023-02-13T19:17:47;27.80;;;17.20;;
17937;SDS011;16051;53.024;8.630;2023-02-13T19:21:49;28.00;;;16.70;;
17937;SDS011;16051;53.024;8.630;2023-02-13T19:25:53;28.93;;;16.97;;
17937;SDS011;16051;53.024;8.630;2023-02-13T19:29:55;25.47;;;16.60;;
17937;SDS011;16051;53.024;8.630;2023-02-13T19:33:59;30.77;;;18.63;;
17937;SDS011;16051;53.024;8.630;2023-02-13T19:38:01;29.90;;;18.77;;
17937;SDS011;16051;53.024;8.630;2023-02-13T19:42:05;31.03;;;18.80;;
17937;SDS011;16051;53.024;8.630;2023-02-13T19:46:08;30.93;;;18.53;;
17937;SDS011;16051;53.024;8.630;2023-02-13T19:55:08;29.33;;;18.70;;
17937;SDS011;16051;53.024;8.630;2023-02-13T19:59:15;31.43;;;18.73;;
17937;SDS011;16051;53.024;8.630;2023-02-13T20:03:19;28.43;;;16.97;;
17937;SDS011;16051;53.024;8.630;2023-02-13T20:07:21;27.10;;;16.90;;
17937;SDS011;16051;53.024;8.630;2023-02-13T20:11:29;27.63;;;16.67;;
17937;SDS011;16051;53.024;8.630;2023-02-13T20:15:32;28.70;;;18.90;;
17937;SDS011;16051;53.024;8.630;2023-02-13T20:19:34;29.47;;;17.97;;
17937;SDS011;16051;53.024;8.630;2023-02-13T20:23:51;26.07;;;16.63;;
17937;SDS011;16051;53.024;8.630;2023-02-13T20:27:53;25.33;;;15.60;;
17937;SDS011;16051;53.024;8.630;2023-02-13T20:31:57;26.30;;;15.80;;
17937;SDS011;16051;53.024;8.630;2023-02-13T20:36:04;24.30;;;15.67;;
17937;SDS011;16051;53.024;8.630;2023-02-13T20:40:10;24.47;;;15.93;;
17937;SDS011;16051;53.024;8.630;2023-02-13T20:44:30;22.43;;;14.33;;
17937;SDS011;16051;53.024;8.630;2023-02-13T20:48:35;24.13;;;14.80;;
17937;SDS011;16051;53.024;8.630;2023-02-13T20:52:38;20.90;;;13.63;;
17937;SDS011;16051;53.024;8.630;2023-02-13T20:56:40;19.73;;;12.73;;
17937;SDS011;16051;53.024;8.630;2023-02-13T21:00:49;18.37;;;12.47;;
17937;SDS011;16051;53.024;8.630;2023-02-13T21:04:54;13.83;;;9.17;;
17937;SDS011;16051;53.024;8.630;2023-02-13T21:08:56;13.87;;;9.80;;
17937;SDS011;16051;53.024;8.630;2023-02-13T21:12:59;13.67;;;8.80;;
17937;SDS011;16051;53.024;8.630;2023-02-13T21:17:01;10.90;;;7.60;;
17937;SDS011;16051;53.024;8.630;2023-02-13T21:21:05;7.30;;;5.73;;
17937;SDS011;16051;53.024;8.630;2023-02-13T21:25:10;9.90;;;5.80;;
17937;SDS011;16051;53.024;8.630;2023-02-13T21:33:49;10.00;;;6.50;;
17937;SDS011;16051;53.024;8.630;2023-02-13T21:37:53;10.80;;;7.50;;
17937;SDS011;16051;53.024;8.630;2023-02-13T21:41:55;16.13;;;9.33;;
17937;SDS011;16051;53.024;8.630;2023-02-13T21:46:03;14.10;;;9.10;;
17937;SDS011;16051;53.024;8.630;2023-02-13T21:50:07;15.80;;;9.87;;
17937;SDS011;16051;53.024;8.630;2023-02-13T21:54:11;18.73;;;10.77;;
17937;SDS011;16051;53.024;8.630;2023-02-13T21:58:14;31.80;;;16.17;;
17937;SDS011;16051;53.024;8.630;2023-02-13T22:02:19;38.00;;;19.00;;
17937;SDS011;16051;53.024;8.630;2023-02-13T22:06:22;39.80;;;18.10;;
17937;SDS011;16051;53.024;8.630;2023-02-13T22:10:26;24.30;;;12.40;;
17937;SDS011;16051;53.024;8.630;2023-02-13T22:14:28;41.13;;;19.43;;
17937;SDS011;16051;53.024;8.630;2023-02-13T22:18:30;35.43;;;17.90;;
17937;SDS011;16051;53.024;8.630;2023-02-13T22:22:34;32.60;;;16.93;;
17937;SDS011;16051;53.024;8.630;2023-02-13T22:26:38;28.23;;;15.83;;
17937;SDS011;16051;53.024;8.630;2023-02-13T22:30:59;30.90;;;15.97;;
17937;SDS011;16051;53.024;8.630;2023-02-13T22:35:08;21.33;;;12.50;;
17937;SDS011;16051;53.024;8.630;2023-02-13T22:39:11;19.73;;;11.17;;
17937;SDS011;16051;53.024;8.630;2023-02-13T22:43:14;21.57;;;12.93;;
17937;SDS011;16051;53.024;8.630;2023-02-13T22:47:16;19.37;;;11.30;;
17937;SDS011;16051;53.024;8.630;2023-02-13T22:51:19;23.33;;;13.30;;
17937;SDS011;16051;53.024;8.630;2023-02-13T22:55:24;21.17;;;12.07;;
17937;SDS011;16051;53.024;8.630;2023-02-13T22:59:28;20.77;;;13.23;;
17937;SDS011;16051;53.024;8.630;2023-02-13T23:03:42;24.77;;;13.83;;
17937;SDS011;16051;53.024;8.630;2023-02-13T23:07:44;20.23;;;13.20;;
17937;SDS011;16051;53.024;8.630;2023-02-13T23:11:46;22.43;;;12.90;;
17937;SDS011;16051;53.024;8.630;2023-02-13T23:16:11;18.27;;;12.03;;
17937;SDS011;16051;53.024;8.630;2023-02-13T23:20:16;24.63;;;12.20;;
17937;SDS011;16051;53.024;8.630;2023-02-13T23:24:19;21.00;;;12.23;;
17937;SDS011;16051;53.024;8.630;2023-02-13T23:28:23;17.43;;;11.90;;
17937;SDS011;16051;53.024;8.630;2023-02-13T23:32:27;17.77;;;11.47;;
17937;SDS011;16051;53.024;8.630;2023-02-13T23:36:29;19.50;;;11.90;;
17937;SDS011;16051;53.024;8.630;2023-02-13T23:40:31;16.83;;;11.93;;
17937;SDS011;16051;53.024;8.630;2023-02-13T23:44:33;22.20;;;12.10;;
17937;SDS011;16051;53.024;8.630;2023-02-13T23:48:36;20.23;;;12.40;;
17937;SDS011;16051;53.024;8.630;2023-02-13T23:52:45;17.50;;;11.90;;
17937;SDS011;16051;53.024;8.630;2023-02-13T23:56:47;19.10;;;11.57;;
